Time;durP1;ratioP1;P1;durP2;ratioP2;P2;SDS_P1;SDS_P2;PMS_P1;PMS_P2;Temp;Humidity;BMP_temperature;BMP_pressure;BME280_temperature;BME280_humidity;BME280_pressure;Samples;Min_cycle;Max_cycle;Signal;HPM_P1;HPM_P2
2023/12/13 00:00:27;;;;;;;52.40;23.05;;;6.70;99.90;;;;;;5074176;28;20068;-47
2023/12/13 00:02:52;;;;;;;47.38;22.70;;;6.60;99.90;;;;;;5074093;28;20040;-49
2023/12/13 00:05:18;;;;;;;48.42;21.60;;;7.70;99.90;;;;;;5074056;28;20056;-49
2023/12/13 00:07:44;;;;;;;46.92;20.45;;;6.90;99.90;;;;;;5074064;28;20396;-49
2023/12/13 00:10:09;;;;;;;46.20;21.35;;;6.90;99.90;;;;;;5073676;28;20560;-48
2023/12/13 00:12:35;;;;;;;48.83;21.17;;;7.20;99.90;;;;;;5073942;28;20039;-47
2023/12/13 00:15:01;;;;;;;48.33;20.05;;;7.40;99.90;;;;;;5074110;28;20621;-45
2023/12/13 00:17:26;;;;;;;46.60;21.83;;;6.80;99.90;;;;;;5072654;28;20041;-45
2023/12/13 00:19:52;;;;;;;47.03;20.88;;;7.50;99.90;;;;;;5072875;28;20045;-49
2023/12/13 00:22:17;;;;;;;49.33;20.52;;;7.80;99.90;;;;;;5073275;28;20040;-48
2023/12/13 00:24:43;;;;;;;45.60;20.58;;;6.60;99.90;;;;;;5073593;28;20494;-49
2023/12/13 00:27:09;;;;;;;51.10;20.48;;;7.00;99.90;;;;;;5073816;28;20043;-48
2023/12/13 00:29:35;;;;;;;47.33;19.88;;;7.10;99.90;;;;;;5072387;28;20084;-45
2023/12/13 00:32:01;;;;;;;46.03;20.65;;;6.60;99.90;;;;;;5073646;28;20072;-49
2023/12/13 00:34:26;;;;;;;47.03;20.60;;;6.60;99.90;;;;;;5073274;28;20036;-47
2023/12/13 00:36:52;;;;;;;46.55;20.05;;;6.70;99.90;;;;;;5072975;28;20134;-50
2023/12/13 00:39:18;;;;;;;49.30;20.15;;;7.70;99.90;;;;;;5073325;28;20041;-49
2023/12/13 00:41:43;;;;;;;49.38;19.52;;;6.70;99.90;;;;;;5073447;28;20496;-49
2023/12/13 00:44:09;;;;;;;43.17;19.35;;;7.60;99.90;;;;;;5073256;28;20045;-45
2023/12/13 00:46:35;;;;;;;44.30;19.25;;;7.60;99.90;;;;;;5073407;28;20455;-47
2023/12/13 00:49:00;;;;;;;45.20;19.80;;;6.60;99.90;;;;;;5073390;28;20398;-47
2023/12/13 00:51:26;;;;;;;39.60;18.67;;;7.40;99.90;;;;;;5073448;28;20082;-46
2023/12/13 00:53:52;;;;;;;41.38;19.25;;;7.30;99.90;;;;;;5073321;28;20044;-46
2023/12/13 00:56:17;;;;;;;46.38;18.80;;;6.60;99.90;;;;;;5073136;28;20439;-44
2023/12/13 00:58:45;;;;;;;40.92;17.90;;;7.10;99.90;;;;;;5073136;28;20033;-46
2023/12/13 01:01:11;;;;;;;42.33;18.13;;;7.60;99.90;;;;;;5072615;28;20558;-45
2023/12/13 01:03:37;;;;;;;39.35;17.02;;;7.40;99.90;;;;;;5072758;28;20036;-45
2023/12/13 01:06:09;;;;;;;44.97;17.63;;;6.50;99.90;;;;;;5072891;28;20101;-44
2023/12/13 01:08:38;;;;;;;36.15;16.27;;;7.60;99.90;;;;;;5072700;28;20045;-44
2023/12/13 01:11:11;;;;;;;38.10;17.02;;;7.40;99.90;;;;;;5072707;28;20703;-48
2023/12/13 01:13:37;;;;;;;35.95;15.52;;;6.70;99.90;;;;;;5072506;28;20051;-46
2023/12/13 01:16:03;;;;;;;41.00;16.23;;;7.40;99.90;;;;;;5071437;28;20036;-45
2023/12/13 01:18:29;;;;;;;36.75;15.52;;;7.60;99.90;;;;;;5072608;28;20044;-44
2023/12/13 01:20:55;;;;;;;39.47;15.85;;;6.50;99.90;;;;;;5072771;28;20043;-46
2023/12/13 01:23:20;;;;;;;35.13;15.98;;;6.60;99.90;;;;;;5072490;28;20048;-46
2023/12/13 01:25:46;;;;;;;38.85;16.08;;;6.70;99.90;;;;;;5072744;28;20056;-46
2023/12/13 01:28:12;;;;;;;34.35;13.93;;;6.60;99.90;;;;;;5071087;28;20051;-45
2023/12/13 01:30:37;;;;;;;36.60;15.18;;;7.60;99.90;;;;;;5054350;28;20094;-45
2023/12/13 01:33:03;;;;;;;37.30;15.73;;;6.60;99.90;;;;;;5072331;28;20063;-44
2023/12/13 01:35:29;;;;;;;30.13;13.35;;;6.60;99.90;;;;;;5072027;28;20064;-46
2023/12/13 01:37:54;;;;;;;32.35;14.20;;;7.60;99.90;;;;;;5072438;28;20051;-45
2023/12/13 01:40:20;;;;;;;35.03;13.75;;;7.50;99.90;;;;;;5072328;28;20028;-46
2023/12/13 01:42:46;;;;;;;33.15;13.18;;;6.70;99.90;;;;;;5072241;28;20040;-46
2023/12/13 01:45:11;;;;;;;28.90;12.20;;;7.20;99.90;;;;;;5071808;28;20670;-44
2023/12/13 01:47:38;;;;;;;26.50;11.95;;;7.60;99.90;;;;;;5071619;28;20102;-44
2023/12/13 01:50:04;;;;;;;28.40;12.23;;;6.60;99.90;;;;;;5070550;28;20051;-45
2023/12/13 01:52:30;;;;;;;26.33;11.48;;;7.40;99.90;;;;;;5071857;28;20073;-44
2023/12/13 01:54:56;;;;;;;26.58;11.93;;;7.30;99.90;;;;;;5070660;28;20506;-44
2023/12/13 01:57:23;;;;;;;28.52;11.70;;;7.60;99.90;;;;;;5071877;28;20041;-46
2023/12/13 01:59:48;;;;;;;27.02;11.50;;;7.00;99.90;;;;;;5072117;28;20098;-45
2023/12/13 02:02:14;;;;;;;27.10;11.80;;;6.70;99.90;;;;;;5072319;28;20033;-45
2023/12/13 02:04:41;;;;;;;28.52;12.10;;;6.60;99.90;;;;;;5072007;28;20033;-47
2023/12/13 02:07:06;;;;;;;29.67;12.68;;;6.70;99.90;;;;;;5071827;28;20048;-45
2023/12/13 02:09:32;;;;;;;28.95;13.55;;;6.60;99.90;;;;;;5071849;28;20045;-46
2023/12/13 02:11:58;;;;;;;25.25;11.20;;;6.60;99.90;;;;;;5071836;28;20085;-49
2023/12/13 02:14:25;;;;;;;31.52;13.27;;;7.20;99.90;;;;;;5070646;28;20076;-45
2023/12/13 02:16:53;;;;;;;32.55;13.40;;;7.20;99.90;;;;;;5070949;28;20036;-49
2023/12/13 02:19:18;;;;;;;31.85;13.40;;;7.20;99.90;;;;;;5071932;28;20123;-45
2023/12/13 02:21:44;;;;;;;33.58;13.70;;;7.60;99.90;;;;;;5072059;28;20079;-46
2023/12/13 02:24:10;;;;;;;34.53;14.20;;;7.70;99.90;;;;;;5072057;28;20468;-48
2023/12/13 02:26:40;;;;;;;33.78;14.73;;;7.40;99.90;;;;;;5071747;28;20040;-47
2023/12/13 02:29:07;;;;;;;39.50;16.10;;;6.60;99.90;;;;;;5071535;28;20045;-46
2023/12/13 02:31:34;;;;;;;35.00;14.50;;;7.60;99.90;;;;;;5071423;28;20127;-47
2023/12/13 02:33:59;;;;;;;34.75;14.38;;;6.70;99.90;;;;;;5070213;28;20121;-48
2023/12/13 02:36:25;;;;;;;35.92;14.65;;;6.80;99.90;;;;;;5070129;28;20084;-45
2023/12/13 02:38:51;;;;;;;32.95;14.27;;;7.60;99.90;;;;;;5071331;28;20036;-45
2023/12/13 02:41:16;;;;;;;37.88;15.27;;;7.70;99.90;;;;;;5071793;28;20041;-45
2023/12/13 02:43:42;;;;;;;37.05;15.18;;;6.80;99.90;;;;;;5074107;28;20047;-49
2023/12/13 02:46:08;;;;;;;36.85;15.40;;;6.60;99.90;;;;;;5075537;28;20094;-45
2023/12/13 02:48:33;;;;;;;36.83;14.93;;;7.70;99.90;;;;;;5075402;28;20040;-47
2023/12/13 02:50:59;;;;;;;41.70;15.85;;;6.90;99.90;;;;;;5073963;28;20089;-46
2023/12/13 02:53:25;;;;;;;44.70;17.48;;;6.80;99.90;;;;;;5074178;28;20435;-46
2023/12/13 02:55:51;;;;;;;36.67;15.57;;;6.70;99.90;;;;;;5075540;28;20051;-47
2023/12/13 02:58:16;;;;;;;39.25;15.73;;;6.70;99.90;;;;;;5075563;28;20041;-45
2023/12/13 03:00:42;;;;;;;38.97;15.30;;;7.70;99.90;;;;;;5075372;28;20049;-46
2023/12/13 03:03:08;;;;;;;42.85;16.27;;;7.40;99.90;;;;;;5073627;28;20515;-45
2023/12/13 03:05:34;;;;;;;38.85;15.18;;;6.90;99.90;;;;;;5075276;28;20048;-45
2023/12/13 03:07:59;;;;;;;39.78;16.02;;;7.10;99.90;;;;;;5075211;28;20065;-45
2023/12/13 03:10:25;;;;;;;42.50;16.38;;;7.70;99.90;;;;;;5074994;28;20516;-45
2023/12/13 03:12:51;;;;;;;38.85;16.08;;;6.70;99.90;;;;;;5074971;28;20036;-44
2023/12/13 03:15:17;;;;;;;41.30;16.35;;;7.70;99.90;;;;;;5074846;28;20032;-46
2023/12/13 03:17:42;;;;;;;38.63;15.68;;;7.10;99.90;;;;;;5075063;28;20041;-46
2023/12/13 03:20:09;;;;;;;38.40;17.38;;;6.80;99.90;;;;;;5075088;28;20048;-45
2023/12/13 03:22:35;;;;;;;45.88;16.95;;;6.80;99.90;;;;;;5073578;28;20052;-46
2023/12/13 03:25:01;;;;;;;46.45;17.10;;;7.70;99.90;;;;;;5074595;28;20037;-45
2023/12/13 03:27:26;;;;;;;44.45;18.35;;;6.80;99.90;;;;;;5074865;28;20041;-48
2023/12/13 03:29:52;;;;;;;49.40;18.33;;;7.80;99.90;;;;;;5073046;28;20048;-48
2023/12/13 03:32:18;;;;;;;45.78;17.48;;;7.40;99.90;;;;;;5074490;28;20044;-50
2023/12/13 03:34:43;;;;;;;46.75;17.50;;;7.10;99.90;;;;;;5074535;28;20140;-44
2023/12/13 03:37:09;;;;;;;45.83;16.70;;;7.70;99.90;;;;;;5074163;28;20111;-45
2023/12/13 03:39:35;;;;;;;42.95;17.25;;;6.70;99.90;;;;;;5074269;28;20071;-48
2023/12/13 03:42:01;;;;;;;44.40;16.90;;;7.70;99.90;;;;;;5073940;28;20109;-47
2023/12/13 03:44:26;;;;;;;41.47;17.67;;;7.50;99.90;;;;;;5074255;28;20039;-47
2023/12/13 03:46:54;;;;;;;43.40;17.08;;;6.70;99.90;;;;;;5074166;28;20044;-49
2023/12/13 03:49:19;;;;;;;41.22;16.75;;;7.00;99.90;;;;;;5074214;28;20111;-46
2023/12/13 03:51:47;;;;;;;44.47;17.88;;;6.80;99.90;;;;;;5074443;28;20120;-45
2023/12/13 03:54:16;;;;;;;43.22;18.58;;;7.70;99.90;;;;;;5072778;28;20116;-44
2023/12/13 03:56:41;;;;;;;42.83;16.65;;;7.50;99.90;;;;;;5074101;28;20049;-45
2023/12/13 03:59:08;;;;;;;46.88;18.15;;;7.80;99.90;;;;;;5073904;28;20149;-46
2023/12/13 04:01:33;;;;;;;47.45;17.70;;;6.90;99.90;;;;;;5074080;28;20108;-45
2023/12/13 04:03:59;;;;;;;40.10;17.15;;;6.70;99.90;;;;;;5073195;28;20080;-49
2023/12/13 04:06:25;;;;;;;43.42;17.33;;;7.60;99.90;;;;;;5073933;28;20044;-44
2023/12/13 04:08:50;;;;;;;46.63;17.63;;;7.30;99.90;;;;;;5074236;28;20117;-45
2023/12/13 04:11:16;;;;;;;40.22;16.90;;;7.00;99.90;;;;;;5073888;28;20476;-47
2023/12/13 04:13:42;;;;;;;44.85;17.95;;;6.80;99.90;;;;;;5073307;28;20381;-44
2023/12/13 04:16:08;;;;;;;43.03;17.98;;;6.70;99.90;;;;;;5073255;28;20449;-45
2023/12/13 04:18:35;;;;;;;45.70;18.42;;;7.50;99.90;;;;;;5071897;28;20040;-45
2023/12/13 04:21:00;;;;;;;42.47;18.40;;;7.50;99.90;;;;;;5073027;28;20508;-44
2023/12/13 04:23:26;;;;;;;45.85;18.17;;;7.60;99.90;;;;;;5071694;28;20050;-44
2023/12/13 04:25:52;;;;;;;53.03;18.42;;;7.70;99.90;;;;;;5073168;28;20044;-45
2023/12/13 04:28:17;;;;;;;48.20;17.73;;;7.60;99.90;;;;;;5072814;28;20054;-45
2023/12/13 04:30:43;;;;;;;43.35;17.13;;;6.80;99.90;;;;;;5073078;28;20121;-45
2023/12/13 04:33:09;;;;;;;38.63;16.88;;;7.80;99.90;;;;;;5073644;28;20426;-45
2023/12/13 04:35:34;;;;;;;42.35;17.58;;;6.80;99.90;;;;;;5071813;28;20549;-46
2023/12/13 04:38:00;;;;;;;44.25;15.85;;;7.80;99.90;;;;;;5073411;28;20481;-45
2023/12/13 04:40:26;;;;;;;39.90;17.33;;;6.80;99.90;;;;;;5073608;28;20071;-45
2023/12/13 04:42:51;;;;;;;42.03;17.10;;;7.30;99.90;;;;;;5055349;28;20123;-46
2023/12/13 04:45:17;;;;;;;41.22;17.02;;;6.90;99.90;;;;;;5073384;28;20071;-45
2023/12/13 04:47:43;;;;;;;42.70;18.10;;;6.80;99.90;;;;;;5073385;28;20051;-45
2023/12/13 04:50:09;;;;;;;41.67;17.65;;;7.20;99.90;;;;;;5072863;28;20608;-45
2023/12/13 04:52:35;;;;;;;40.67;17.23;;;7.80;99.90;;;;;;5072930;28;20032;-48
2023/12/13 04:55:02;;;;;;;40.50;17.30;;;7.50;99.90;;;;;;5072611;28;20040;-48
2023/12/13 04:57:27;;;;;;;42.15;17.02;;;6.80;99.90;;;;;;5072601;28;20153;-47
2023/12/13 04:59:53;;;;;;;42.38;17.88;;;7.40;99.90;;;;;;5072846;28;20057;-49
2023/12/13 05:02:19;;;;;;;37.33;16.33;;;7.40;99.90;;;;;;5073189;28;20032;-48
2023/12/13 05:04:45;;;;;;;39.45;16.25;;;7.60;99.90;;;;;;5072920;28;20055;-49
2023/12/13 05:07:11;;;;;;;40.35;17.58;;;7.70;99.90;;;;;;5072506;28;20098;-46
2023/12/13 05:09:37;;;;;;;37.20;16.40;;;6.70;99.90;;;;;;5072697;28;20443;-45
2023/12/13 05:12:03;;;;;;;37.40;16.55;;;6.80;99.90;;;;;;5072896;28;20048;-47
2023/12/13 05:14:29;;;;;;;40.85;17.38;;;7.60;99.90;;;;;;5072595;28;20045;-45
2023/12/13 05:16:54;;;;;;;42.00;17.35;;;6.70;99.90;;;;;;5071095;28;20044;-44
2023/12/13 05:19:20;;;;;;;36.90;16.60;;;7.70;99.90;;;;;;5072607;28;20052;-45
2023/12/13 05:21:46;;;;;;;37.05;16.70;;;6.80;99.90;;;;;;5072709;28;20480;-44
2023/12/13 05:24:12;;;;;;;36.17;17.40;;;6.60;99.90;;;;;;5072201;28;20130;-48
2023/12/13 05:26:37;;;;;;;42.22;18.20;;;6.70;99.90;;;;;;5071878;28;20041;-49
2023/12/13 05:29:03;;;;;;;37.67;17.35;;;7.50;99.90;;;;;;5071903;28;20103;-47
2023/12/13 05:31:29;;;;;;;35.72;16.55;;;6.90;99.90;;;;;;5072057;28;20048;-48
2023/12/13 05:33:55;;;;;;;33.92;16.17;;;6.80;99.90;;;;;;5070825;28;20040;-49
2023/12/13 05:36:20;;;;;;;41.55;18.85;;;6.70;99.90;;;;;;5072164;28;20063;-48
2023/12/13 05:38:46;;;;;;;35.42;16.40;;;6.70;99.90;;;;;;5072220;28;20396;-45
2023/12/13 05:41:12;;;;;;;38.88;19.10;;;7.70;99.90;;;;;;5072530;28;20127;-47
2023/12/13 05:43:38;;;;;;;37.35;17.20;;;7.10;99.90;;;;;;5072477;28;20427;-46
2023/12/13 05:46:05;;;;;;;36.15;15.88;;;7.60;99.90;;;;;;5072169;28;20041;-46
2023/12/13 05:48:31;;;;;;;38.33;17.05;;;7.50;99.90;;;;;;5071030;28;20119;-45
2023/12/13 05:50:58;;;;;;;31.55;16.58;;;7.20;99.90;;;;;;5072413;28;20491;-45
2023/12/13 05:53:23;;;;;;;39.33;16.67;;;7.70;99.90;;;;;;5072508;28;20392;-46
2023/12/13 05:55:49;;;;;;;36.40;17.25;;;6.70;99.90;;;;;;5071877;28;20044;-46
2023/12/13 05:58:15;;;;;;;37.17;17.02;;;6.70;99.90;;;;;;5071770;28;20051;-46
2023/12/13 06:00:41;;;;;;;39.45;17.52;;;7.70;99.90;;;;;;5071853;28;20036;-46
2023/12/13 06:03:06;;;;;;;36.30;17.27;;;7.50;99.90;;;;;;5071787;28;20040;-49
2023/12/13 06:05:32;;;;;;;36.22;17.85;;;7.70;99.90;;;;;;5070179;28;20119;-45
2023/12/13 06:07:58;;;;;;;33.90;16.33;;;7.00;99.90;;;;;;5072061;28;20120;-45
2023/12/13 06:10:23;;;;;;;36.42;17.73;;;7.30;99.90;;;;;;5072166;28;20120;-46
2023/12/13 06:12:51;;;;;;;32.80;16.23;;;6.70;99.90;;;;;;5072123;28;20064;-45
2023/12/13 06:15:16;;;;;;;40.30;17.48;;;7.80;99.90;;;;;;5072039;28;20045;-46
2023/12/13 06:17:43;;;;;;;35.90;18.02;;;6.90;99.90;;;;;;5072603;28;20445;-45
2023/12/13 06:20:09;;;;;;;37.03;17.52;;;6.80;99.90;;;;;;5075734;28;20119;-45
2023/12/13 06:22:36;;;;;;;34.45;16.55;;;7.70;99.90;;;;;;5075937;28;20046;-45
2023/12/13 06:25:02;;;;;;;37.25;16.42;;;7.10;99.90;;;;;;5075848;28;20051;-45
2023/12/13 06:27:28;;;;;;;34.90;17.40;;;7.70;99.90;;;;;;5076234;28;20052;-47
2023/12/13 06:29:53;;;;;;;32.65;17.70;;;6.70;99.90;;;;;;5076008;28;20119;-48
2023/12/13 06:32:19;;;;;;;37.50;17.80;;;7.80;99.90;;;;;;5076082;28;20119;-45
2023/12/13 06:34:46;;;;;;;35.97;17.10;;;6.80;99.90;;;;;;5074812;28;20036;-46
2023/12/13 06:37:11;;;;;;;34.33;16.75;;;6.70;99.90;;;;;;5075391;28;20512;-49
2023/12/13 06:39:37;;;;;;;38.60;17.98;;;7.60;99.90;;;;;;5075263;28;20045;-44
2023/12/13 06:42:04;;;;;;;34.50;16.48;;;7.60;99.90;;;;;;5075479;28;20040;-45
2023/12/13 06:44:30;;;;;;;37.70;17.52;;;7.20;99.90;;;;;;5075445;28;20044;-45
2023/12/13 06:46:57;;;;;;;37.22;17.58;;;6.70;99.90;;;;;;5075412;28;20375;-44
2023/12/13 06:49:23;;;;;;;33.80;16.85;;;6.80;99.90;;;;;;5075448;28;20056;-45
2023/12/13 06:51:50;;;;;;;36.75;17.88;;;6.80;99.90;;;;;;5075408;28;20405;-44
2023/12/13 06:54:16;;;;;;;36.03;16.80;;;7.30;99.90;;;;;;5075449;28;20048;-44
2023/12/13 06:56:42;;;;;;;32.70;17.58;;;7.30;99.90;;;;;;5075359;28;20057;-44
2023/12/13 06:59:07;;;;;;;35.88;17.75;;;7.80;99.90;;;;;;5075086;28;20122;-46
2023/12/13 07:01:33;;;;;;;36.90;18.23;;;7.80;99.90;;;;;;5074273;28;20041;-44
2023/12/13 07:04:01;;;;;;;37.20;16.85;;;7.00;99.90;;;;;;5075317;28;20105;-46
2023/12/13 07:06:26;;;;;;;35.80;17.60;;;6.80;99.90;;;;;;5075164;28;20473;-45
2023/12/13 07:08:52;;;;;;;35.78;18.95;;;7.80;99.90;;;;;;5073822;28;20059;-45
2023/12/13 07:11:18;;;;;;;41.03;19.30;;;6.90;99.90;;;;;;5075038;28;20586;-44
2023/12/13 07:13:43;;;;;;;34.55;16.98;;;7.10;99.90;;;;;;5074925;28;20515;-48
2023/12/13 07:16:09;;;;;;;38.42;18.10;;;6.90;99.90;;;;;;5074820;28;20098;-47
2023/12/13 07:18:35;;;;;;;33.60;17.27;;;7.80;99.90;;;;;;5074568;28;20071;-48
2023/12/13 07:21:00;;;;;;;36.75;18.45;;;7.30;99.90;;;;;;5074562;28;20037;-46
2023/12/13 07:23:26;;;;;;;35.90;17.60;;;7.80;99.90;;;;;;5074583;28;20044;-48
2023/12/13 07:25:52;;;;;;;34.17;18.02;;;6.80;99.90;;;;;;5074224;28;20041;-45
2023/12/13 07:28:18;;;;;;;36.40;16.88;;;7.00;99.90;;;;;;5073919;28;20067;-49
2023/12/13 07:30:44;;;;;;;36.80;17.33;;;7.50;99.90;;;;;;5074386;28;20115;-49
2023/12/13 07:33:10;;;;;;;34.50;18.27;;;7.50;99.90;;;;;;5074200;28;20036;-49
2023/12/13 07:35:36;;;;;;;34.17;17.13;;;6.90;99.90;;;;;;5074190;28;20497;-46
2023/12/13 07:38:03;;;;;;;36.83;17.60;;;7.90;99.90;;;;;;5072775;28;20044;-45
2023/12/13 07:40:29;;;;;;;39.88;17.70;;;6.80;99.90;;;;;;5056493;28;20485;-45
2023/12/13 07:42:55;;;;;;;35.65;18.40;;;7.90;99.90;;;;;;5074256;28;20044;-46
2023/12/13 07:45:22;;;;;;;30.77;14.40;;;7.90;99.90;;;;;;5074177;28;20369;-48
2023/12/13 07:47:48;;;;;;;33.38;15.20;;;7.10;99.90;;;;;;5072737;28;20045;-48
2023/12/13 07:50:14;;;;;;;28.73;14.20;;;7.80;99.90;;;;;;5073902;28;20044;-49
2023/12/13 07:52:40;;;;;;;29.42;13.52;;;7.50;99.90;;;;;;5073841;28;20037;-47
2023/12/13 07:55:06;;;;;;;31.40;14.35;;;7.10;99.90;;;;;;5073845;28;20491;-48
2023/12/13 07:57:32;;;;;;;32.38;15.30;;;7.70;99.90;;;;;;5073808;28;20042;-46
2023/12/13 07:59:57;;;;;;;35.95;15.75;;;7.80;99.90;;;;;;5074189;28;20060;-46
2023/12/13 08:02:24;;;;;;;36.63;15.45;;;6.90;99.90;;;;;;5073897;28;20043;-46
2023/12/13 08:04:50;;;;;;;31.02;15.25;;;7.20;99.90;;;;;;5072430;28;20176;-45
2023/12/13 08:07:15;;;;;;;33.95;15.25;;;7.90;99.90;;;;;;5073502;28;20128;-45
2023/12/13 08:09:41;;;;;;;33.83;15.40;;;7.40;99.90;;;;;;5073864;28;20072;-46
2023/12/13 08:12:07;;;;;;;32.53;14.77;;;6.90;99.90;;;;;;5073759;28;20432;-46
2023/12/13 08:14:33;;;;;;;32.33;14.82;;;7.00;99.90;;;;;;5073552;28;20435;-45
2023/12/13 08:17:02;;;;;;;32.00;15.77;;;7.90;99.90;;;;;;5073402;28;20072;-45
2023/12/13 08:19:28;;;;;;;34.63;16.80;;;7.80;99.90;;;;;;5071888;28;20514;-47
2023/12/13 08:21:53;;;;;;;34.03;16.85;;;6.90;99.90;;;;;;5073377;28;20036;-45
2023/12/13 08:24:19;;;;;;;39.00;16.67;;;8.00;99.90;;;;;;5073435;28;20044;-47
2023/12/13 08:26:45;;;;;;;36.88;17.52;;;7.50;99.90;;;;;;5073178;28;20080;-46
2023/12/13 08:29:11;;;;;;;35.90;17.13;;;8.00;99.90;;;;;;5073141;28;20052;-48
2023/12/13 08:31:36;;;;;;;35.25;17.67;;;7.00;99.90;;;;;;5073122;28;20508;-45
2023/12/13 08:34:02;;;;;;;37.58;18.08;;;7.40;99.90;;;;;;5073069;28;20045;-46
2023/12/13 08:36:28;;;;;;;39.95;17.55;;;7.10;99.90;;;;;;5072684;28;20044;-45
2023/12/13 08:38:54;;;;;;;39.17;17.95;;;8.00;99.90;;;;;;5073097;28;20522;-46
2023/12/13 08:41:20;;;;;;;38.50;17.45;;;7.90;99.90;;;;;;5054359;28;20043;-45
2023/12/13 08:43:46;;;;;;;37.22;16.95;;;7.10;99.90;;;;;;5073302;28;20044;-45
2023/12/13 08:46:12;;;;;;;40.50;17.13;;;7.90;99.90;;;;;;5072851;28;20120;-46
2023/12/13 08:48:38;;;;;;;35.38;17.08;;;7.20;99.90;;;;;;5072745;28;20123;-45
2023/12/13 08:51:03;;;;;;;40.92;16.52;;;8.00;99.90;;;;;;5073235;28;20698;-45
2023/12/13 08:53:29;;;;;;;41.03;18.05;;;8.00;99.90;;;;;;5071435;28;20177;-48
2023/12/13 08:55:55;;;;;;;38.97;18.13;;;7.10;99.90;;;;;;5072593;28;20512;-48
2023/12/13 08:58:20;;;;;;;37.72;17.70;;;8.00;99.90;;;;;;5072349;28;20044;-45
2023/12/13 09:00:46;;;;;;;41.47;18.40;;;7.50;99.90;;;;;;5072383;28;20036;-45
2023/12/13 09:03:12;;;;;;;37.88;17.48;;;7.80;99.90;;;;;;5072201;28;20064;-45
2023/12/13 09:05:38;;;;;;;39.10;17.70;;;7.20;99.90;;;;;;5072142;28;20040;-47
2023/12/13 09:08:04;;;;;;;41.95;18.88;;;7.10;99.90;;;;;;5072555;28;20052;-57
2023/12/13 09:10:30;;;;;;;42.15;19.20;;;7.20;99.90;;;;;;5072358;28;20116;-46
2023/12/13 09:12:56;;;;;;;41.30;20.00;;;8.10;99.90;;;;;;5072395;28;20043;-47
2023/12/13 09:15:21;;;;;;;41.58;19.00;;;8.20;99.90;;;;;;5070810;28;20046;-45
2023/12/13 09:17:47;;;;;;;41.45;18.40;;;7.20;99.90;;;;;;5072069;28;20037;-45
2023/12/13 09:20:16;;;;;;;40.78;18.60;;;7.20;99.90;;;;;;5072523;28;20055;-44
2023/12/13 09:22:42;;;;;;;41.90;18.70;;;8.10;99.90;;;;;;5072413;28;20040;-45
2023/12/13 09:25:14;;;;;;;46.22;18.90;;;7.20;99.90;;;;;;5072481;28;20106;-46
2023/12/13 09:27:42;;;;;;;42.33;19.95;;;7.70;99.90;;;;;;5072138;28;20102;-45
2023/12/13 09:30:09;;;;;;;42.70;19.55;;;7.60;99.90;;;;;;5072316;28;20080;-45
2023/12/13 09:32:35;;;;;;;39.65;19.60;;;8.10;99.90;;;;;;5072225;28;20454;-46
2023/12/13 09:35:01;;;;;;;43.47;19.73;;;7.80;99.90;;;;;;5071897;28;20119;-45
2023/12/13 09:37:27;;;;;;;48.55;19.40;;;8.20;99.90;;;;;;5072095;28;20397;-45
2023/12/13 09:39:53;;;;;;;52.15;20.20;;;7.60;99.90;;;;;;5071875;28;20106;-46
2023/12/13 09:42:18;;;;;;;46.58;20.90;;;7.70;99.90;;;;;;5071954;28;20036;-47
2023/12/13 09:44:49;;;;;;;46.80;19.85;;;8.30;99.90;;;;;;5071947;28;20039;-46
2023/12/13 09:47:17;;;;;;;48.38;20.83;;;7.40;99.90;;;;;;5071699;28;20044;-47
2023/12/13 09:49:43;;;;;;;50.58;20.15;;;7.40;99.90;;;;;;5072045;28;20412;-46
2023/12/13 09:52:10;;;;;;;46.33;20.83;;;7.50;99.90;;;;;;5072309;28;20052;-46
2023/12/13 09:54:39;;;;;;;45.40;20.35;;;7.60;99.90;;;;;;5071835;28;20047;-47
2023/12/13 09:57:07;;;;;;;42.05;20.08;;;8.40;99.90;;;;;;5071701;28;20549;-45
2023/12/13 09:59:35;;;;;;;45.25;20.25;;;7.50;99.90;;;;;;5071675;28;20044;-50
2023/12/13 10:02:01;;;;;;;46.58;19.52;;;7.70;99.90;;;;;;5070280;28;20046;-46
2023/12/13 10:04:28;;;;;;;45.72;21.92;;;7.60;99.90;;;;;;5071939;28;20040;-46
2023/12/13 10:06:55;;;;;;;44.25;20.80;;;7.80;99.90;;;;;;5071441;28;20500;-47
2023/12/13 10:09:20;;;;;;;45.33;21.77;;;8.60;99.90;;;;;;5071600;28;20101;-45
2023/12/13 10:11:46;;;;;;;46.00;20.65;;;7.60;99.90;;;;;;5071873;28;20457;-45
2023/12/13 10:14:12;;;;;;;44.97;20.45;;;8.00;99.90;;;;;;5071643;28;20043;-48
2023/12/13 10:16:39;;;;;;;51.92;22.88;;;7.70;99.90;;;;;;5071495;28;20043;-47
2023/12/13 10:19:06;;;;;;;47.95;20.55;;;8.60;99.90;;;;;;5070024;28;20471;-48
2023/12/13 10:21:35;;;;;;;46.38;20.80;;;7.70;99.90;;;;;;5071408;28;20097;-46
2023/12/13 10:24:03;;;;;;;48.05;20.55;;;7.80;99.90;;;;;;5069931;28;20032;-46
2023/12/13 10:26:34;;;;;;;43.28;21.83;;;8.20;99.90;;;;;;5071111;28;20052;-46
2023/12/13 10:29:05;;;;;;;48.88;21.23;;;8.70;99.90;;;;;;5071077;28;20040;-47
2023/12/13 10:31:31;;;;;;;46.45;20.27;;;8.50;99.90;;;;;;5071655;28;20502;-47
2023/12/13 10:33:57;;;;;;;48.28;20.98;;;8.70;99.90;;;;;;5071490;28;20123;-50
2023/12/13 10:36:27;;;;;;;46.65;20.30;;;8.70;99.90;;;;;;5071180;28;20143;-47
2023/12/13 10:38:54;;;;;;;45.47;21.10;;;8.70;99.90;;;;;;5071284;28;20137;-46
2023/12/13 10:41:27;;;;;;;43.00;20.38;;;7.90;99.90;;;;;;5071171;28;20075;-47
2023/12/13 10:43:57;;;;;;;47.17;20.88;;;8.70;99.90;;;;;;5071653;28;20041;-49
2023/12/13 10:46:27;;;;;;;48.80;20.95;;;8.80;99.90;;;;;;5071335;28;20045;-47
2023/12/13 10:48:54;;;;;;;48.75;20.90;;;8.80;99.90;;;;;;5071045;28;20058;-48
2023/12/13 10:51:22;;;;;;;42.60;21.23;;;8.80;99.90;;;;;;5071333;28;20041;-45
2023/12/13 10:53:48;;;;;;;44.55;20.05;;;8.60;99.90;;;;;;5070991;28;20485;-45
2023/12/13 10:56:15;;;;;;;47.13;21.05;;;8.80;99.90;;;;;;5071404;28;20041;-46
2023/12/13 10:58:45;;;;;;;49.90;21.55;;;8.90;99.90;;;;;;5071356;28;20131;-48
2023/12/13 11:01:12;;;;;;;46.90;21.20;;;8.30;99.90;;;;;;5070410;28;20036;-48
2023/12/13 11:04:18;;;;;;;39.42;17.30;;;8.80;99.90;;;;;;5072269;28;20028;-47
2023/12/13 11:06:46;;;;;;;35.78;15.75;;;8.10;99.90;;;;;;5051935;28;20063;-48
2023/12/13 11:09:20;;;;;;;41.55;16.27;;;8.20;99.90;;;;;;5075266;28;20123;-48
2023/12/13 11:11:47;;;;;;;35.08;15.93;;;8.10;99.90;;;;;;5075214;28;20121;-48
2023/12/13 11:14:15;;;;;;;36.88;16.80;;;8.80;99.90;;;;;;5075289;28;20047;-46
2023/12/13 11:16:45;;;;;;;40.75;18.05;;;8.80;99.90;;;;;;5073761;28;20051;-46
2023/12/13 11:19:15;;;;;;;42.30;17.52;;;8.20;99.90;;;;;;5075119;28;20041;-48
2023/12/13 11:21:45;;;;;;;38.67;17.60;;;8.60;99.90;;;;;;5075232;28;20041;-47
2023/12/13 11:24:16;;;;;;;37.55;16.17;;;8.30;99.90;;;;;;5074875;28;20094;-49
2023/12/13 11:26:45;;;;;;;40.43;17.97;;;8.20;99.90;;;;;;5075095;28;20036;-50
2023/12/13 11:29:30;;;;;;;46.75;17.52;;;8.70;99.90;;;;;;5074687;28;20041;-47
2023/12/13 11:31:58;;;;;;;38.30;16.75;;;8.70;99.90;;;;;;5074641;28;20426;-47
2023/12/13 11:34:47;;;;;;;44.40;18.38;;;8.60;99.90;;;;;;5074611;28;20044;-47
2023/12/13 11:37:14;;;;;;;43.88;17.65;;;8.10;99.90;;;;;;5073039;28;20470;-45
2023/12/13 11:39:41;;;;;;;44.13;18.90;;;8.00;99.90;;;;;;5074372;28;20094;-44
2023/12/13 11:42:12;;;;;;;45.85;19.48;;;8.70;99.90;;;;;;5074387;28;20129;-45
2023/12/13 11:44:39;;;;;;;42.90;17.52;;;8.50;99.90;;;;;;5074359;28;20083;-45
2023/12/13 11:47:08;;;;;;;43.40;18.67;;;8.70;99.90;;;;;;5074640;28;20469;-45
2023/12/13 11:49:35;;;;;;;42.60;18.48;;;8.00;99.90;;;;;;5074910;28;20119;-46
2023/12/13 11:52:03;;;;;;;41.15;18.38;;;8.00;99.90;;;;;;5074387;28;20082;-46
2023/12/13 11:54:29;;;;;;;52.80;21.48;;;8.50;99.90;;;;;;5072948;28;20055;-46
2023/12/13 11:56:55;;;;;;;58.25;23.85;;;8.00;99.90;;;;;;5074276;28;20056;-45
2023/12/13 11:59:21;;;;;;;57.72;22.50;;;8.70;99.90;;;;;;5074445;28;20036;-45
2023/12/13 12:01:47;;;;;;;52.28;22.40;;;8.60;99.90;;;;;;5072913;28;20037;-45
2023/12/13 12:04:18;;;;;;;57.50;24.30;;;8.60;99.90;;;;;;5074406;28;20044;-50
2023/12/13 12:06:52;;;;;;;53.85;24.92;;;7.80;99.90;;;;;;5073045;28;20102;-48
2023/12/13 12:09:24;;;;;;;56.08;24.80;;;7.80;99.90;;;;;;5074195;28;20040;-46
2023/12/13 12:11:53;;;;;;;60.30;24.75;;;8.30;99.90;;;;;;5074211;28;20048;-46
2023/12/13 12:14:19;;;;;;;53.67;23.98;;;8.60;99.90;;;;;;5074223;28;20086;-45
2023/12/13 12:16:45;;;;;;;53.22;24.23;;;8.50;99.90;;;;;;5072805;28;20159;-46
2023/12/13 12:19:11;;;;;;;40.22;17.05;;;7.80;99.90;;;;;;5072426;28;20082;-46
2023/12/13 12:21:36;;;;;;;33.13;15.57;;;7.80;99.90;;;;;;5074042;28;20040;-46
2023/12/13 12:24:03;;;;;;;27.98;13.15;;;8.30;99.90;;;;;;5073940;28;20047;-49
2023/12/13 12:26:29;;;;;;;30.60;12.73;;;8.00;99.90;;;;;;5073805;28;20547;-45
2023/12/13 12:28:55;;;;;;;24.38;11.35;;;8.10;99.90;;;;;;5073690;28;20087;-45
2023/12/13 12:31:20;;;;;;;27.70;11.75;;;7.70;99.90;;;;;;5073672;28;20044;-45